sensor_id;sensor_type;location;lat;lon;timestamp;pressure;altitude;pressure_sealevel;temperature;humidity
77867;BME280;67271;59.120;37.970;2023-06-24T00:04:11;99783.59;;;12.58;74.03
77867;BME280;67271;59.120;37.970;2023-06-24T00:06:42;99784.47;;;12.52;74.24
77867;BME280;67271;59.120;37.970;2023-06-24T00:09:08;99786.19;;;12.46;74.34
77867;BME280;67271;59.120;37.970;2023-06-24T00:11:34;99780.56;;;12.41;74.47
77867;BME280;67271;59.120;37.970;2023-06-24T00:14:00;99788.09;;;12.39;74.41
77867;BME280;67271;59.120;37.970;2023-06-24T00:16:26;99787.06;;;12.40;74.74
77867;BME280;67271;59.120;37.970;2023-06-24T00:18:55;99789.53;;;12.41;74.70
77867;BME280;67271;59.120;37.970;2023-06-24T00:21:28;99789.94;;;12.45;74.27
77867;BME280;67271;59.120;37.970;2023-06-24T00:23:59;99785.34;;;12.46;74.49
77867;BME280;67271;59.120;37.970;2023-06-24T00:26:30;99781.59;;;12.47;74.22
77867;BME280;67271;59.120;37.970;2023-06-24T00:28:58;99788.84;;;12.53;74.03
77867;BME280;67271;59.120;37.970;2023-06-24T00:31:24;99790.25;;;12.62;74.24
77867;BME280;67271;59.120;37.970;2023-06-24T00:33:50;99792.94;;;12.68;74.15
77867;BME280;67271;59.120;37.970;2023-06-24T00:36:17;99787.50;;;12.68;73.92
77867;BME280;67271;59.120;37.970;2023-06-24T00:38:43;99788.13;;;12.70;73.65
77867;BME280;67271;59.120;37.970;2023-06-24T00:41:10;99781.19;;;12.74;74.05
77867;BME280;67271;59.120;37.970;2023-06-24T00:43:37;99787.25;;;12.76;74.04
77867;BME280;67271;59.120;37.970;2023-06-24T00:46:04;99791.16;;;12.80;73.87
77867;BME280;67271;59.120;37.970;2023-06-24T00:48:34;99781.31;;;12.86;73.76
77867;BME280;67271;59.120;37.970;2023-06-24T00:51:00;99783.16;;;12.92;73.64
77867;BME280;67271;59.120;37.970;2023-06-24T00:53:26;99788.53;;;12.99;73.61
77867;BME280;67271;59.120;37.970;2023-06-24T00:55:55;99776.56;;;13.06;73.39
77867;BME280;67271;59.120;37.970;2023-06-24T00:58:28;99781.97;;;13.13;73.42
77867;BME280;67271;59.120;37.970;2023-06-24T01:00:57;99784.00;;;13.17;73.29
77867;BME280;67271;59.120;37.970;2023-06-24T01:03:24;99782.13;;;13.18;73.24
77867;BME280;67271;59.120;37.970;2023-06-24T01:05:51;99776.91;;;13.16;73.15
77867;BME280;67271;59.120;37.970;2023-06-24T01:08:18;99779.66;;;13.10;73.44
77867;BME280;67271;59.120;37.970;2023-06-24T01:10:51;99782.06;;;13.00;73.90
77867;BME280;67271;59.120;37.970;2023-06-24T01:13:17;99777.22;;;13.02;73.82
77867;BME280;67271;59.120;37.970;2023-06-24T01:15:44;99779.94;;;13.02;73.63
77867;BME280;67271;59.120;37.970;2023-06-24T01:18:23;99774.91;;;13.05;73.38
77867;BME280;67271;59.120;37.970;2023-06-24T01:31:48;99771.84;;;13.45;72.31
77867;BME280;67271;59.120;37.970;2023-06-24T01:34:29;99782.88;;;13.50;72.53
77867;BME280;67271;59.120;37.970;2023-06-24T01:37:19;99769.00;;;13.58;72.38
77867;BME280;67271;59.120;37.970;2023-06-24T01:39:49;99776.03;;;13.66;72.24
77867;BME280;67271;59.120;37.970;2023-06-24T01:42:17;99779.22;;;13.81;71.87
77867;BME280;67271;59.120;37.970;2023-06-24T01:44:47;99783.50;;;13.88;71.40
77867;BME280;67271;59.120;37.970;2023-06-24T01:47:14;99781.97;;;13.92;71.22
77867;BME280;67271;59.120;37.970;2023-06-24T01:49:42;99779.78;;;14.01;70.92
77867;BME280;67271;59.120;37.970;2023-06-24T01:52:11;99774.94;;;14.21;70.58
77867;BME280;67271;59.120;37.970;2023-06-24T01:54:39;99779.75;;;14.38;70.22
77867;BME280;67271;59.120;37.970;2023-06-24T01:57:08;99781.72;;;14.49;70.37
77867;BME280;67271;59.120;37.970;2023-06-24T01:59:38;99779.97;;;14.66;69.87
77867;BME280;67271;59.120;37.970;2023-06-24T02:02:06;99784.94;;;14.87;68.96
77867;BME280;67271;59.120;37.970;2023-06-24T02:04:34;99792.88;;;15.00;68.66
77867;BME280;67271;59.120;37.970;2023-06-24T02:07:02;99790.44;;;15.10;68.66
77867;BME280;67271;59.120;37.970;2023-06-24T02:09:30;99789.09;;;15.13;68.49
77867;BME280;67271;59.120;37.970;2023-06-24T02:11:58;99799.66;;;15.09;68.78
77867;BME280;67271;59.120;37.970;2023-06-24T02:14:27;99793.59;;;15.07;68.79
77867;BME280;67271;59.120;37.970;2023-06-24T02:16:58;99794.44;;;15.08;68.75
77867;BME280;67271;59.120;37.970;2023-06-24T02:19:27;99787.69;;;15.10;68.88
77867;BME280;67271;59.120;37.970;2023-06-24T02:21:57;99797.06;;;15.15;68.67
77867;BME280;67271;59.120;37.970;2023-06-24T02:24:25;99796.22;;;15.14;68.70
77867;BME280;67271;59.120;37.970;2023-06-24T02:26:53;99789.75;;;15.73;67.23
77867;BME280;67271;59.120;37.970;2023-06-24T02:29:20;99781.00;;;18.24;61.18
77867;BME280;67271;59.120;37.970;2023-06-24T02:31:49;99784.16;;;20.39;56.37
77867;BME280;67271;59.120;37.970;2023-06-24T02:34:15;99785.94;;;21.67;53.48
77867;BME280;67271;59.120;37.970;2023-06-24T02:36:41;99780.91;;;22.63;51.79
77867;BME280;67271;59.120;37.970;2023-06-24T02:39:07;99781.34;;;23.25;51.15
77867;BME280;67271;59.120;37.970;2023-06-24T02:41:33;99785.38;;;23.95;49.88
77867;BME280;67271;59.120;37.970;2023-06-24T02:43:59;99786.31;;;24.57;48.79
77867;BME280;67271;59.120;37.970;2023-06-24T02:46:27;99786.84;;;24.96;48.35
77867;BME280;67271;59.120;37.970;2023-06-24T02:48:56;99790.38;;;25.53;47.26
77867;BME280;67271;59.120;37.970;2023-06-24T02:51:25;99792.50;;;25.56;47.27
77867;BME280;67271;59.120;37.970;2023-06-24T02:53:51;99788.88;;;24.91;48.57
77867;BME280;67271;59.120;37.970;2023-06-24T02:56:22;99802.03;;;23.90;50.00
77867;BME280;67271;59.120;37.970;2023-06-24T02:58:50;99794.78;;;23.36;50.71
77867;BME280;67271;59.120;37.970;2023-06-24T03:01:21;99790.59;;;24.25;48.88
77867;BME280;67271;59.120;37.970;2023-06-24T03:03:55;99788.13;;;25.23;46.54
77867;BME280;67271;59.120;37.970;2023-06-24T03:06:22;99798.28;;;24.71;47.70
77867;BME280;67271;59.120;37.970;2023-06-24T03:08:50;99796.94;;;24.87;47.83
77867;BME280;67271;59.120;37.970;2023-06-24T03:11:18;99793.53;;;24.95;47.26
77867;BME280;67271;59.120;37.970;2023-06-24T03:13:44;99798.50;;;24.75;47.52
77867;BME280;67271;59.120;37.970;2023-06-24T03:16:30;99807.13;;;24.30;48.05
77867;BME280;67271;59.120;37.970;2023-06-24T03:19:11;99812.81;;;23.24;50.03
77867;BME280;67271;59.120;37.970;2023-06-24T03:21:37;99797.19;;;24.01;48.29
77867;BME280;67271;59.120;37.970;2023-06-24T03:24:11;99800.16;;;24.76;46.91
77867;BME280;67271;59.120;37.970;2023-06-24T03:26:39;99806.81;;;25.31;45.86
77867;BME280;67271;59.120;37.970;2023-06-24T03:29:08;99805.19;;;26.22;44.40
77867;BME280;67271;59.120;37.970;2023-06-24T03:31:37;99803.72;;;26.66;43.79
77867;BME280;67271;59.120;37.970;2023-06-24T03:34:11;99811.41;;;27.18;43.00
77867;BME280;67271;59.120;37.970;2023-06-24T03:36:39;99806.72;;;26.55;43.89
77867;BME280;67271;59.120;37.970;2023-06-24T03:39:06;99813.34;;;26.82;43.61
77867;BME280;67271;59.120;37.970;2023-06-24T03:41:32;99806.31;;;27.79;42.09
77867;BME280;67271;59.120;37.970;2023-06-24T03:43:58;99814.50;;;28.54;40.99
77867;BME280;67271;59.120;37.970;2023-06-24T03:46:24;99815.56;;;28.93;40.27
77867;BME280;67271;59.120;37.970;2023-06-24T03:48:51;99813.63;;;29.02;40.14
77867;BME280;67271;59.120;37.970;2023-06-24T03:51:18;99818.69;;;29.17;39.90
77867;BME280;67271;59.120;37.970;2023-06-24T03:53:45;99814.25;;;29.33;39.42
77867;BME280;67271;59.120;37.970;2023-06-24T03:56:10;99822.59;;;29.24;39.63
77867;BME280;67271;59.120;37.970;2023-06-24T03:58:36;99824.59;;;28.98;40.03
77867;BME280;67271;59.120;37.970;2023-06-24T04:01:02;99830.50;;;28.40;40.57
77867;BME280;67271;59.120;37.970;2023-06-24T04:03:28;99826.78;;;27.60;41.62
77867;BME280;67271;59.120;37.970;2023-06-24T04:05:55;99827.50;;;27.08;42.44
77867;BME280;67271;59.120;37.970;2023-06-24T04:08:22;99831.19;;;26.26;43.52
77867;BME280;67271;59.120;37.970;2023-06-24T04:10:51;99829.78;;;25.82;44.04
77867;BME280;67271;59.120;37.970;2023-06-24T04:13:17;99829.09;;;26.73;42.62
77867;BME280;67271;59.120;37.970;2023-06-24T04:15:44;99823.22;;;27.46;41.37
77867;BME280;67271;59.120;37.970;2023-06-24T04:18:10;99824.44;;;28.07;40.42
77867;BME280;67271;59.120;37.970;2023-06-24T04:20:46;99822.34;;;28.52;39.81
77867;BME280;67271;59.120;37.970;2023-06-24T04:23:12;99828.72;;;29.35;38.48
77867;BME280;67271;59.120;37.970;2023-06-24T04:25:41;99829.31;;;29.84;37.91
77867;BME280;67271;59.120;37.970;2023-06-24T04:28:08;99830.91;;;29.85;38.02
77867;BME280;67271;59.120;37.970;2023-06-24T04:30:34;99834.09;;;29.75;37.80
77867;BME280;67271;59.120;37.970;2023-06-24T04:33:02;99829.34;;;29.15;38.66
77867;BME280;67271;59.120;37.970;2023-06-24T04:35:28;99830.97;;;29.33;38.80
77867;BME280;67271;59.120;37.970;2023-06-24T04:37:55;99831.59;;;29.82;38.04
77867;BME280;67271;59.120;37.970;2023-06-24T04:40:23;99836.50;;;29.93;37.67
77867;BME280;67271;59.120;37.970;2023-06-24T04:42:48;99835.19;;;29.91;37.69
77867;BME280;67271;59.120;37.970;2023-06-24T04:45:14;99847.97;;;30.00;37.68
77867;BME280;67271;59.120;37.970;2023-06-24T04:47:40;99845.88;;;28.85;39.14
77867;BME280;67271;59.120;37.970;2023-06-24T04:50:22;99843.06;;;27.76;40.48
77867;BME280;67271;59.120;37.970;2023-06-24T04:52:54;99841.69;;;27.87;40.12
77867;BME280;67271;59.120;37.970;2023-06-24T04:55:22;99844.75;;;29.04;38.36
77867;BME280;67271;59.120;37.970;2023-06-24T04:57:48;99844.09;;;28.10;39.49
77867;BME280;67271;59.120;37.970;2023-06-24T05:00:14;99853.66;;;26.79;41.47
77867;BME280;67271;59.120;37.970;2023-06-24T05:02:40;99849.59;;;25.76;43.10
77867;BME280;67271;59.120;37.970;2023-06-24T05:05:07;99841.53;;;25.42;43.64
77867;BME280;67271;59.120;37.970;2023-06-24T05:07:33;99854.16;;;25.99;42.78
77867;BME280;67271;59.120;37.970;2023-06-24T05:09:58;99852.94;;;25.73;42.77
77867;BME280;67271;59.120;37.970;2023-06-24T05:12:24;99852.09;;;25.91;42.88
77867;BME280;67271;59.120;37.970;2023-06-24T05:14:51;99854.88;;;26.05;42.30
77867;BME280;67271;59.120;37.970;2023-06-24T05:17:20;99845.47;;;26.33;41.92
77867;BME280;67271;59.120;37.970;2023-06-24T05:19:46;99851.28;;;26.86;41.01
77867;BME280;67271;59.120;37.970;2023-06-24T05:22:12;99843.28;;;27.57;40.01
77867;BME280;67271;59.120;37.970;2023-06-24T05:24:38;99839.59;;;28.71;38.50
77867;BME280;67271;59.120;37.970;2023-06-24T05:27:05;99841.31;;;28.98;38.38
77867;BME280;67271;59.120;37.970;2023-06-24T05:29:32;99843.59;;;28.96;38.13
77867;BME280;67271;59.120;37.970;2023-06-24T05:31:58;99844.38;;;28.79;38.49
77867;BME280;67271;59.120;37.970;2023-06-24T05:34:25;99846.94;;;28.67;38.11
77867;BME280;67271;59.120;37.970;2023-06-24T05:36:51;99840.50;;;29.15;37.40
77867;BME280;67271;59.120;37.970;2023-06-24T05:39:17;99843.16;;;29.37;37.18
77867;BME280;67271;59.120;37.970;2023-06-24T05:41:43;99839.84;;;29.70;36.41
77867;BME280;67271;59.120;37.970;2023-06-24T05:44:11;99838.22;;;29.51;36.64
77867;BME280;67271;59.120;37.970;2023-06-24T05:46:37;99840.78;;;28.87;37.97
77867;BME280;67271;59.120;37.970;2023-06-24T05:49:03;99843.44;;;29.18;37.33
77867;BME280;67271;59.120;37.970;2023-06-24T05:51:29;99847.00;;;29.88;36.21
77867;BME280;67271;59.120;37.970;2023-06-24T05:53:55;99842.56;;;30.51;35.28
77867;BME280;67271;59.120;37.970;2023-06-24T05:56:21;99842.91;;;30.40;34.87
77867;BME280;67271;59.120;37.970;2023-06-24T05:58:50;99839.66;;;30.68;34.91
77867;BME280;67271;59.120;37.970;2023-06-24T06:01:16;99845.31;;;31.30;33.84
77867;BME280;67271;59.120;37.970;2023-06-24T06:03:42;99842.22;;;31.02;33.87
77867;BME280;67271;59.120;37.970;2023-06-24T06:06:08;99839.94;;;30.75;34.42
77867;BME280;67271;59.120;37.970;2023-06-24T06:08:34;99847.72;;;31.20;33.58
77867;BME280;67271;59.120;37.970;2023-06-24T06:11:02;99852.41;;;31.48;33.13
77867;BME280;67271;59.120;37.970;2023-06-24T06:13:29;99840.19;;;31.53;32.24
77867;BME280;67271;59.120;37.970;2023-06-24T06:15:55;99843.09;;;31.77;31.72
77867;BME280;67271;59.120;37.970;2023-06-24T06:18:22;99849.06;;;31.55;31.78
77867;BME280;67271;59.120;37.970;2023-06-24T06:20:48;99843.28;;;31.39;31.75
77867;BME280;67271;59.120;37.970;2023-06-24T06:23:15;99854.38;;;31.06;32.04
77867;BME280;67271;59.120;37.970;2023-06-24T06:25:42;99845.34;;;30.51;32.47
77867;BME280;67271;59.120;37.970;2023-06-24T06:28:08;99846.03;;;29.84;33.04
77867;BME280;67271;59.120;37.970;2023-06-24T06:30:34;99842.63;;;29.01;33.60
77867;BME280;67271;59.120;37.970;2023-06-24T06:33:00;99840.94;;;28.82;33.88
77867;BME280;67271;59.120;37.970;2023-06-24T06:35:25;99843.47;;;29.61;33.08
77867;BME280;67271;59.120;37.970;2023-06-24T06:38:00;99836.75;;;29.54;33.04
77867;BME280;67271;59.120;37.970;2023-06-24T06:40:47;99839.16;;;28.86;33.70
77867;BME280;67271;59.120;37.970;2023-06-24T06:43:13;99844.56;;;28.92;33.82
77867;BME280;67271;59.120;37.970;2023-06-24T06:45:39;99842.28;;;29.02;33.30
77867;BME280;67271;59.120;37.970;2023-06-24T06:48:05;99837.53;;;29.20;33.16
77867;BME280;67271;59.120;37.970;2023-06-24T06:50:33;99846.88;;;29.07;33.33
77867;BME280;67271;59.120;37.970;2023-06-24T06:52:59;99833.91;;;29.11;33.28
77867;BME280;67271;59.120;37.970;2023-06-24T06:55:26;99843.09;;;29.03;33.24
77867;BME280;67271;59.120;37.970;2023-06-24T06:57:52;99849.34;;;29.00;33.83
77867;BME280;67271;59.120;37.970;2023-06-24T07:00:18;99841.78;;;28.92;33.48
77867;BME280;67271;59.120;37.970;2023-06-24T07:02:44;99841.44;;;28.36;33.91
77867;BME280;67271;59.120;37.970;2023-06-24T07:05:10;99852.09;;;28.03;34.55
77867;BME280;67271;59.120;37.970;2023-06-24T07:07:39;99849.81;;;27.39;35.15
77867;BME280;67271;59.120;37.970;2023-06-24T07:10:05;99843.69;;;26.92;35.69
77867;BME280;67271;59.120;37.970;2023-06-24T07:12:31;99846.38;;;26.70;36.41
77867;BME280;67271;59.120;37.970;2023-06-24T07:14:57;99854.38;;;26.85;36.44
77867;BME280;67271;59.120;37.970;2023-06-24T07:17:25;99844.28;;;27.61;35.37
77867;BME280;67271;59.120;37.970;2023-06-24T07:19:51;99842.13;;;27.80;35.33
77867;BME280;67271;59.120;37.970;2023-06-24T07:22:17;99854.50;;;28.19;35.07
77867;BME280;67271;59.120;37.970;2023-06-24T07:24:43;99850.78;;;28.32;34.93
77867;BME280;67271;59.120;37.970;2023-06-24T07:27:08;99847.41;;;28.52;34.80
77867;BME280;67271;59.120;37.970;2023-06-24T07:29:34;99849.16;;;28.96;34.95
77867;BME280;67271;59.120;37.970;2023-06-24T07:32:01;99850.63;;;29.02;34.37
77867;BME280;67271;59.120;37.970;2023-06-24T07:34:28;99857.22;;;29.32;34.00
77867;BME280;67271;59.120;37.970;2023-06-24T07:36:55;99851.78;;;29.10;34.01
77867;BME280;67271;59.120;37.970;2023-06-24T07:39:21;99858.34;;;29.05;34.33
77867;BME280;67271;59.120;37.970;2023-06-24T07:41:46;99849.19;;;29.48;33.48
77867;BME280;67271;59.120;37.970;2023-06-24T07:44:12;99848.03;;;29.57;33.54
77867;BME280;67271;59.120;37.970;2023-06-24T07:46:38;99852.97;;;29.60;33.65
77867;BME280;67271;59.120;37.970;2023-06-24T07:49:04;99854.94;;;29.69;33.66
77867;BME280;67271;59.120;37.970;2023-06-24T07:51:30;99851.47;;;29.72;33.64
77867;BME280;67271;59.120;37.970;2023-06-24T07:53:56;99849.22;;;29.39;33.68
77867;BME280;67271;59.120;37.970;2023-06-24T07:56:21;99858.34;;;29.05;34.42
77867;BME280;67271;59.120;37.970;2023-06-24T07:58:47;99849.31;;;28.82;34.72
77867;BME280;67271;59.120;37.970;2023-06-24T08:01:13;99850.88;;;28.66;34.75
77867;BME280;67271;59.120;37.970;2023-06-24T08:03:39;99855.25;;;28.41;34.86
77867;BME280;67271;59.120;37.970;2023-06-24T08:06:05;99859.66;;;28.11;35.29
77867;BME280;67271;59.120;37.970;2023-06-24T08:08:31;99853.50;;;27.70;35.48
77867;BME280;67271;59.120;37.970;2023-06-24T08:10:57;99852.19;;;27.67;35.04
77867;BME280;67271;59.120;37.970;2023-06-24T08:13:23;99850.38;;;27.63;35.09
77867;BME280;67271;59.120;37.970;2023-06-24T08:15:48;99855.00;;;27.31;35.27
77867;BME280;67271;59.120;37.970;2023-06-24T08:18:14;99858.50;;;26.74;35.94
77867;BME280;67271;59.120;37.970;2023-06-24T08:20:40;99855.13;;;26.49;36.20
77867;BME280;67271;59.120;37.970;2023-06-24T08:23:06;99850.41;;;26.50;36.02
77867;BME280;67271;59.120;37.970;2023-06-24T08:25:32;99870.03;;;26.26;36.10
77867;BME280;67271;59.120;37.970;2023-06-24T08:27:58;99874.97;;;26.29;35.89
77867;BME280;67271;59.120;37.970;2023-06-24T08:30:24;99860.88;;;26.39;35.82
77867;BME280;67271;59.120;37.970;2023-06-24T08:32:50;99867.59;;;26.52;35.76
77867;BME280;67271;59.120;37.970;2023-06-24T08:35:16;99863.25;;;26.32;35.89
77867;BME280;67271;59.120;37.970;2023-06-24T08:37:42;99878.13;;;26.23;36.12
77867;BME280;67271;59.120;37.970;2023-06-24T08:40:08;99875.50;;;26.31;36.10
77867;BME280;67271;59.120;37.970;2023-06-24T08:42:34;99882.59;;;26.37;35.76
77867;BME280;67271;59.120;37.970;2023-06-24T08:45:00;99870.13;;;26.48;35.76
77867;BME280;67271;59.120;37.970;2023-06-24T08:47:28;99867.97;;;26.73;35.76
77867;BME280;67271;59.120;37.970;2023-06-24T08:50:04;99873.97;;;26.52;36.35
77867;BME280;67271;59.120;37.970;2023-06-24T08:52:35;99877.19;;;26.13;36.62
77867;BME280;67271;59.120;37.970;2023-06-24T08:55:02;99874.00;;;26.06;36.80
77867;BME280;67271;59.120;37.970;2023-06-24T08:57:30;99878.44;;;26.21;36.52
77867;BME280;67271;59.120;37.970;2023-06-24T08:59:56;99878.78;;;26.33;36.34
77867;BME280;67271;59.120;37.970;2023-06-24T09:02:22;99872.41;;;26.46;36.17
77867;BME280;67271;59.120;37.970;2023-06-24T09:04:50;99871.59;;;26.59;36.04
77867;BME280;67271;59.120;37.970;2023-06-24T09:07:27;99870.53;;;26.83;35.81
77867;BME280;67271;59.120;37.970;2023-06-24T09:09:56;99880.25;;;27.21;35.53
77867;BME280;67271;59.120;37.970;2023-06-24T09:12:24;99871.88;;;27.35;35.48
77867;BME280;67271;59.120;37.970;2023-06-24T09:14:51;99876.22;;;27.27;35.64
77867;BME280;67271;59.120;37.970;2023-06-24T09:17:18;99871.94;;;27.21;35.62
77867;BME280;67271;59.120;37.970;2023-06-24T09:19:44;99891.91;;;27.10;35.80
77867;BME280;67271;59.120;37.970;2023-06-24T09:22:10;99892.34;;;27.03;36.31
77867;BME280;67271;59.120;37.970;2023-06-24T09:24:44;99883.91;;;26.94;36.52
77867;BME280;67271;59.120;37.970;2023-06-24T09:27:17;99889.69;;;26.43;37.04
77867;BME280;67271;59.120;37.970;2023-06-24T09:29:45;99895.53;;;25.96;37.69
77867;BME280;67271;59.120;37.970;2023-06-24T09:32:12;99883.97;;;25.75;37.92
77867;BME280;67271;59.120;37.970;2023-06-24T09:34:39;99889.56;;;25.89;37.61
77867;BME280;67271;59.120;37.970;2023-06-24T09:37:05;99894.72;;;26.09;37.18
77867;BME280;67271;59.120;37.970;2023-06-24T09:39:36;99887.75;;;26.11;36.97
77867;BME280;67271;59.120;37.970;2023-06-24T09:42:04;99885.22;;;26.15;37.16
77867;BME280;67271;59.120;37.970;2023-06-24T09:44:30;99885.28;;;26.10;37.11
77867;BME280;67271;59.120;37.970;2023-06-24T09:46:57;99886.03;;;26.15;36.89
77867;BME280;67271;59.120;37.970;2023-06-24T09:49:23;99888.41;;;26.22;37.13
77867;BME280;67271;59.120;37.970;2023-06-24T09:51:52;99883.91;;;26.26;36.92
77867;BME280;67271;59.120;37.970;2023-06-24T09:54:21;99885.28;;;26.10;37.07
77867;BME280;67271;59.120;37.970;2023-06-24T09:56:50;99876.34;;;26.13;36.95
77867;BME280;67271;59.120;37.970;2023-06-24T09:59:19;99880.41;;;26.48;36.72
77867;BME280;67271;59.120;37.970;2023-06-24T10:01:46;99871.56;;;26.87;36.17
77867;BME280;67271;59.120;37.970;2023-06-24T10:04:16;99879.19;;;26.95;35.94
77867;BME280;67271;59.120;37.970;2023-06-24T10:06:43;99880.72;;;26.87;36.27
77867;BME280;67271;59.120;37.970;2023-06-24T10:09:09;99885.56;;;26.82;36.22
77867;BME280;67271;59.120;37.970;2023-06-24T10:11:35;99878.88;;;26.69;36.41
77867;BME280;67271;59.120;37.970;2023-06-24T10:14:02;99876.31;;;26.45;36.75
77867;BME280;67271;59.120;37.970;2023-06-24T10:16:28;99883.94;;;25.94;37.33
77867;BME280;67271;59.120;37.970;2023-06-24T10:19:00;99880.91;;;25.76;37.86
77867;BME280;67271;59.120;37.970;2023-06-24T10:21:52;99877.78;;;25.45;38.25
77867;BME280;67271;59.120;37.970;2023-06-24T10:24:32;99879.06;;;25.16;38.92
77867;BME280;67271;59.120;37.970;2023-06-24T10:27:14;99882.72;;;24.92;38.93
77867;BME280;67271;59.120;37.970;2023-06-24T10:29:44;99882.72;;;24.68;38.99
77867;BME280;67271;59.120;37.970;2023-06-24T10:32:11;99882.09;;;24.53;39.30
77867;BME280;67271;59.120;37.970;2023-06-24T10:37:11;99886.38;;;24.64;38.95
77867;BME280;67271;59.120;37.970;2023-06-24T10:39:53;99882.22;;;24.85;38.91
77867;BME280;67271;59.120;37.970;2023-06-24T10:42:41;99877.78;;;25.08;38.44
77867;BME280;67271;59.120;37.970;2023-06-24T10:47:45;99882.31;;;25.74;37.96
77867;BME280;67271;59.120;37.970;2023-06-24T10:50:16;99884.84;;;25.89;37.77
77867;BME280;67271;59.120;37.970;2023-06-24T10:52:44;99879.59;;;26.01;37.87
77867;BME280;67271;59.120;37.970;2023-06-24T10:55:13;99880.34;;;25.93;37.90
77867;BME280;67271;59.120;37.970;2023-06-24T10:57:39;99882.34;;;25.88;38.00
77867;BME280;67271;59.120;37.970;2023-06-24T11:00:05;99873.38;;;25.63;38.10
77867;BME280;67271;59.120;37.970;2023-06-24T11:02:31;99880.91;;;25.58;38.16
77867;BME280;67271;59.120;37.970;2023-06-24T11:05:02;99881.47;;;25.41;38.69
77867;BME280;67271;59.120;37.970;2023-06-24T11:07:34;99867.97;;;25.53;38.84
77867;BME280;67271;59.120;37.970;2023-06-24T11:10:09;99877.25;;;25.95;38.45
77867;BME280;67271;59.120;37.970;2023-06-24T11:12:37;99876.25;;;26.18;38.25
77867;BME280;67271;59.120;37.970;2023-06-24T11:15:08;99869.13;;;26.31;38.47
77867;BME280;67271;59.120;37.970;2023-06-24T11:17:35;99878.72;;;26.19;38.65
77867;BME280;67271;59.120;37.970;2023-06-24T11:20:02;99871.28;;;26.01;39.02
77867;BME280;67271;59.120;37.970;2023-06-24T11:22:29;99871.47;;;25.77;39.39
77867;BME280;67271;59.120;37.970;2023-06-24T11:24:56;99875.22;;;25.49;39.79
77867;BME280;67271;59.120;37.970;2023-06-24T11:27:26;99872.91;;;25.19;39.83
77867;BME280;67271;59.120;37.970;2023-06-24T11:29:53;99871.13;;;25.09;39.99
77867;BME280;67271;59.120;37.970;2023-06-24T11:32:20;99866.81;;;25.03;40.20
77867;BME280;67271;59.120;37.970;2023-06-24T11:34:46;99868.94;;;25.06;40.13
77867;BME280;67271;59.120;37.970;2023-06-24T11:37:14;99865.53;;;24.95;40.18
77867;BME280;67271;59.120;37.970;2023-06-24T11:39:40;99864.63;;;24.76;40.48
77867;BME280;67271;59.120;37.970;2023-06-24T11:42:07;99868.72;;;24.60;40.80
77867;BME280;67271;59.120;37.970;2023-06-24T11:44:33;99869.81;;;24.59;40.68
77867;BME280;67271;59.120;37.970;2023-06-24T11:47:09;99865.25;;;24.73;40.52
77867;BME280;67271;59.120;37.970;2023-06-24T11:50:02;99860.06;;;25.09;39.91
77867;BME280;67271;59.120;37.970;2023-06-24T11:52:41;99859.38;;;24.98;40.33
77867;BME280;67271;59.120;37.970;2023-06-24T11:55:21;99857.13;;;25.00;40.29
77867;BME280;67271;59.120;37.970;2023-06-24T11:57:52;99851.19;;;24.88;40.58
77867;BME280;67271;59.120;37.970;2023-06-24T12:00:20;99853.84;;;24.98;40.66
77867;BME280;67271;59.120;37.970;2023-06-24T12:02:49;99858.16;;;25.04;40.49
77867;BME280;67271;59.120;37.970;2023-06-24T12:05:34;99858.06;;;24.72;40.67
77867;BME280;67271;59.120;37.970;2023-06-24T12:08:06;99857.75;;;24.74;40.70
77867;BME280;67271;59.120;37.970;2023-06-24T12:10:33;99856.19;;;24.86;40.58
77867;BME280;67271;59.120;37.970;2023-06-24T12:13:01;99856.50;;;24.85;40.73
77867;BME280;67271;59.120;37.970;2023-06-24T12:15:27;99856.00;;;24.59;40.85
77867;BME280;67271;59.120;37.970;2023-06-24T12:17:54;99859.28;;;24.61;41.04
77867;BME280;67271;59.120;37.970;2023-06-24T12:20:20;99864.25;;;24.83;40.73
77867;BME280;67271;59.120;37.970;2023-06-24T12:22:47;99863.16;;;24.84;40.58
77867;BME280;67271;59.120;37.970;2023-06-24T12:25:14;99855.94;;;24.64;40.77
77867;BME280;67271;59.120;37.970;2023-06-24T12:27:42;99852.09;;;24.60;40.82
77867;BME280;67271;59.120;37.970;2023-06-24T12:30:08;99847.94;;;24.81;40.57
77867;BME280;67271;59.120;37.970;2023-06-24T12:32:35;99840.38;;;24.92;40.47
77867;BME280;67271;59.120;37.970;2023-06-24T12:35:01;99840.47;;;24.82;40.59
77867;BME280;67271;59.120;37.970;2023-06-24T12:37:32;99843.88;;;24.55;40.96
77867;BME280;67271;59.120;37.970;2023-06-24T12:39:59;99840.19;;;24.41;41.15
77867;BME280;67271;59.120;37.970;2023-06-24T12:42:26;99839.16;;;24.08;41.89
77867;BME280;67271;59.120;37.970;2023-06-24T12:44:52;99844.44;;;24.04;41.80
77867;BME280;67271;59.120;37.970;2023-06-24T12:47:19;99848.47;;;23.88;41.74
77867;BME280;67271;59.120;37.970;2023-06-24T12:49:45;99845.88;;;23.73;41.88
77867;BME280;67271;59.120;37.970;2023-06-24T12:52:13;99838.00;;;23.56;42.25
77867;BME280;67271;59.120;37.970;2023-06-24T12:54:39;99854.34;;;23.52;42.13
77867;BME280;67271;59.120;37.970;2023-06-24T12:57:05;99853.63;;;23.32;42.64
77867;BME280;67271;59.120;37.970;2023-06-24T12:59:31;99843.66;;;23.36;42.72
77867;BME280;67271;59.120;37.970;2023-06-24T13:01:57;99839.47;;;23.43;42.64
77867;BME280;67271;59.120;37.970;2023-06-24T13:04:23;99854.94;;;23.44;42.54
77867;BME280;67271;59.120;37.970;2023-06-24T13:06:51;99858.38;;;23.26;42.74
77867;BME280;67271;59.120;37.970;2023-06-24T13:09:17;99848.25;;;23.11;42.81
77867;BME280;67271;59.120;37.970;2023-06-24T13:11:43;99856.34;;;22.98;42.98
77867;BME280;67271;59.120;37.970;2023-06-24T13:14:09;99858.56;;;22.96;43.10